Latest Weather Observations for Lismore Airport

IDN60801

Issued at 10:05 am EDT Saturday 1 November 2014 (issued every 30 minutes, with the page automatically refreshed every 10 minutes)

About weather observations | Map of weather stations | Latest weather observations for NSW | Other Formats
Station Details ID: 058214 Name: LISMORE AIRPORT AWS Lat: -28.83 Lon: 153.26 Height: 9.21 m
Data from the previous 72 hours. | See also: Recent months for locations in New South Wales
Date/Time
EDT
Temp
°C
App
Temp
°C
Dew
Point
Rel
Hum
%
Delta-T
°C
Wind Press
QNH
hPa
Press
MSL
hPa
Rain
since 9 am
mm
Dir
 
Spd
km/h
Gust
km/h
Spd
kts
Gust
kts
01/10:00am 23.8 26.6 18.0 70 3.6 N 0 0 0 0 1014.5 1014.5 0.0
01/09:30am 24.0 26.7 17.7 68 3.9 NNW 0 7 0 4 1014.7 1014.7 0.0
01/09:00am 23.4 24.7 17.6 70 3.6 W 7 9 4 5 1014.6 1014.6 0.0
01/08:30am 22.9 25.2 17.8 73 3.2 N 2 9 1 5 1014.2 1014.2 0.0
01/08:00am 21.6 20.7 17.8 79 2.4 NNE 19 28 10 15 1013.2 1013.2 0.0
01/07:30am 20.7 22.0 18.5 87 1.4 N 9 15 5 8 1013.0 1013.0 0.0
01/07:00am 20.6 20.9 18.0 85 1.6 NNE 13 17 7 9 1013.0 1013.0 0.0
01/06:30am 18.6 19.9 17.6 94 0.6 NE 7 9 4 5 1013.4 1013.4 0.0
01/06:00am 18.1 20.1 16.9 93 0.7 WSW 2 11 1 6 1013.5 1013.5 0.0
01/05:30am 18.4 20.6 17.4 94 0.6 E 2 7 1 4 1012.7 1012.7 0.0
01/05:00am 17.9 20.2 16.8 93 0.7 CALM 0 0 0 0 1012.9 1012.9 0.0
01/04:30am 18.5 20.9 17.0 91 0.9 CALM 0 7 0 4 1011.9 1011.9 0.0
01/04:00am 18.3 20.6 16.8 91 0.9 CALM 0 0 0 0 1011.9 1011.9 0.0
01/03:30am 18.1 20.3 16.6 91 0.9 CALM 0 0 0 0 1012.0 1012.0 0.0
01/03:00am 18.0 20.0 16.0 88 1.2 CALM 0 0 0 0 1012.5 1012.5 0.0
01/02:30am 18.7 21.0 16.7 88 1.2 CALM 0 0 0 0 1012.4 1012.4 0.0
01/02:00am 18.7 19.1 16.3 86 1.4 NW 9 11 5 6 1012.3 1012.3 0.0
01/01:30am 18.8 19.4 16.8 88 1.2 NW 9 9 5 5 1012.0 1012.0 0.0
01/01:00am 18.8 21.0 16.4 86 1.4 CALM 0 0 0 0 1012.3 1012.3 0.0
01/12:30am 18.6 19.3 16.2 86 1.4 W 7 9 4 5 1012.8 1012.8 0.0
01/12:00am 21.3 23.9 17.5 79 2.3 NNW 0 0 0 0 1013.2 1013.2 0.0
 
Date/Time
EDT
Temp
°C
App
Temp
°C
Dew
Point
Rel
Hum
%
Delta-T
°C
Wind Press
QNH
hPa
Press
MSL
hPa
Rain
since 9 am
mm
Dir
 
Spd
km/h
Gust
km/h
Spd
kts
Gust
kts
31/11:30pm 21.6 22.7 17.2 76 2.7 N 7 11 4 6 1013.5 1013.5 0.0
31/11:00pm 22.1 22.2 17.5 75 2.8 N 13 15 7 8 1013.3 1013.3 0.0
31/10:30pm 22.9 23.0 17.4 71 3.4 NNE 13 15 7 8 1013.3 1013.3 0.0
31/10:00pm 22.8 22.8 17.3 71 3.4 NNE 13 17 7 9 1013.3 1013.3 0.0
31/09:30pm 22.4 22.4 17.1 72 3.3 N 13 17 7 9 1013.4 1013.4 0.0
31/09:00pm 23.9 22.9 17.9 69 3.8 NNE 20 28 11 15 1012.6 1012.6 0.0
31/08:30pm 24.1 23.0 17.8 68 3.9 NNE 20 26 11 14 1011.9 1011.9 0.0
31/08:00pm 24.5 23.0 17.7 66 4.3 NNE 22 28 12 15 1011.8 1011.8 0.0
31/07:30pm 25.0 23.1 17.7 64 4.6 NE 24 32 13 17 1011.7 1011.7 0.0
31/07:00pm 25.9 23.3 17.8 61 5.1 NE 28 37 15 20 1011.2 1011.2 0.0
31/06:30pm 26.8 24.5 18.4 60 5.3 NE 28 35 15 19 1010.6 1010.6 0.0
31/06:00pm 27.6 25.9 18.9 59 5.6 NE 26 39 14 21 1010.3 1010.3 0.0
31/05:30pm 28.2 25.7 18.9 57 6.0 ENE 30 41 16 22 1010.1 1010.1 0.0
31/05:00pm 29.0 27.1 19.3 55 6.3 ENE 28 39 15 21 1010.1 1010.1 0.0
31/04:30pm 29.3 26.9 19.0 53 6.7 ENE 30 43 16 23 1010.1 1010.1 0.0
31/04:00pm 30.1 28.1 19.2 52 7.1 ENE 28 37 15 20 1010.3 1010.3 0.0
31/03:30pm 30.4 28.1 19.4 51 7.2 ENE 30 39 16 21 1010.7 1010.7 0.0
31/03:00pm 30.9 29.7 19.3 50 7.6 ENE 24 33 13 18 1011.1 1011.1 0.0
31/02:30pm 31.2 29.5 18.9 48 8.0 ENE 26 32 14 17 1011.6 1011.6 0.0
31/02:00pm 31.8 31.5 19.1 47 8.3 ENE 19 30 10 16 1012.2 1012.2 0.0
31/01:30pm 31.9 32.1 18.5 45 8.7 NE 15 24 8 13 1012.7 1012.7 0.0
31/01:00pm 32.2 32.9 18.0 42 9.1 NE 11 20 6 11 1013.3 1013.3 0.0
31/12:30pm 31.4 32.1 18.0 44 8.6 NE 11 20 6 11 1013.8 1013.8 0.0
31/12:00pm 30.8 32.3 18.8 48 7.8 N 9 17 5 9 1014.3 1014.3 0.0
31/11:30am 29.6 31.2 16.8 46 8.0 ESE 4 9 2 5 1015.0 1015.0 0.0
31/11:00am 28.4 28.8 16.3 47 7.5 NNW 9 17 5 9 1015.4 1015.4 0.0
31/10:30am 27.3 28.3 17.8 56 6.0 NNW 9 17 5 9 1015.9 1015.9 0.0
31/10:00am 26.2 27.8 17.8 60 5.3 NNE 6 11 3 6 1016.0 1016.0 0.0
31/09:30am 24.8 25.7 16.5 60 5.1 N 7 9 4 5 1016.3 1016.3 0.0
31/09:00am 23.1 24.8 17.1 69 3.7 N 4 9 2 5 1016.4 1016.4 0.0
31/08:30am 21.3 21.8 17.5 79 2.3 NNW 11 15 6 8 1016.5 1016.5 0.0
31/08:00am 19.3 19.3 17.3 88 1.2 NNW 13 15 7 8 1016.4 1016.4 0.0
31/07:30am 17.9 18.3 17.3 96 0.4 N 11 13 6 7 1016.2 1016.2 0.0
31/07:00am 17.0 17.6 16.8 99 0.1 N 9 11 5 6 1016.1 1016.1 0.0
31/06:30am 15.5 15.5 15.3 99 0.1 N 9 11 5 6 1015.9 1015.9 0.0
31/06:00am 15.7 15.4 15.5 99 0.1 N 11 13 6 7 1015.5 1015.5 0.0
31/05:30am 16.2 15.7 16.0 99 0.1 N 13 15 7 8 1015.3 1015.3 0.0
31/05:00am 15.6 15.3 15.4 99 0.1 N 11 13 6 7 1014.9 1014.9 0.0
31/04:30am 15.4 17.1 15.2 99 0.1 CALM 0 6 0 3 1014.6 1014.6 0.0
31/04:00am 15.9 15.7 15.7 99 0.1 N 11 15 6 8 1014.5 1014.5 0.0
31/03:30am 15.5 17.2 15.2 98 0.2 CALM 0 0 0 0 1014.7 1014.7 0.0
31/03:00am 15.6 17.3 15.3 98 0.2 CALM 0 0 0 0 1014.9 1014.9 0.0
31/02:30am 15.8 16.5 15.6 99 0.1 NNW 6 11 3 6 1014.9 1014.9 0.0
31/02:00am 15.6 16.8 15.0 96 0.3 N 2 9 1 5 1014.8 1014.8 0.0
31/01:30am 15.9 17.3 14.3 90 0.9 CALM 0 0 0 0 1015.3 1015.3 0.0
31/01:00am 17.0 18.7 15.3 90 1.0 CALM 0 0 0 0 1015.4 1015.4 0.0
31/12:30am 17.5 19.4 15.7 89 1.1 CALM 0 0 0 0 1015.7 1015.7 0.0
31/12:00am 17.8 18.0 15.8 88 1.2 N 9 11 5 6 1015.8 1015.8 0.0
 
Date/Time
EDT
Temp
°C
App
Temp
°C
Dew
Point
Rel
Hum
%
Delta-T
°C
Wind Press
QNH
hPa
Press
MSL
hPa
Rain
since 9 am
mm
Dir
 
Spd
km/h
Gust
km/h
Spd
kts
Gust
kts
30/11:30pm 17.9 18.5 15.7 87 1.3 N 7 9 4 5 1015.5 1015.5 0.0
30/11:00pm 20.3 20.6 16.9 81 2.1 NNE 11 13 6 7 1015.3 1015.3 0.0
30/10:30pm 21.1 20.3 17.1 78 2.4 NNE 17 22 9 12 1015.0 1015.0 0.0
30/10:00pm 21.3 20.9 17.1 77 2.6 NE 15 22 8 12 1014.7 1014.7 0.0
30/09:30pm 21.6 20.8 17.2 76 2.7 NNE 17 24 9 13 1014.6 1014.6 0.0
30/09:00pm 21.7 20.0 17.3 76 2.7 NE 22 32 12 17 1014.2 1014.2 0.0
30/08:30pm 21.7 20.0 17.3 76 2.7 NE 22 35 12 19 1013.7 1013.7 0.0
30/08:00pm 22.0 19.2 17.2 74 2.9 NE 28 43 15 23 1013.2 1013.2 0.0
30/07:30pm 22.2 20.4 16.9 72 3.2 NE 22 33 12 18 1013.0 1013.0 0.0
30/07:00pm 22.8 19.3 16.6 68 3.8 NE 30 43 16 23 1012.7 1012.7 0.0
30/06:30pm 23.6 20.7 16.1 62 4.6 NE 26 39 14 21 1012.5 1012.5 0.0
30/06:00pm 24.3 19.7 15.2 57 5.5 ENE 33 44 18 24 1012.2 1012.2 0.0
30/05:48pm 24.7 21.1 15.3 56 5.7 ENE 28 48 15 26 1012.1 1012.1 0.0
30/05:30pm 25.2 20.4 14.6 51 6.3 ENE 33 43 18 23 1012.1 1012.1 0.0
30/05:00pm 26.2 21.4 14.0 47 7.2 ENE 32 43 17 23 1012.1 1012.1 0.0
30/04:30pm 26.7 21.8 13.8 45 7.6 ENE 32 43 17 23 1012.2 1012.2 0.0
30/04:00pm 27.2 22.4 13.9 44 7.9 ENE 32 43 17 23 1012.2 1012.2 0.0
30/03:30pm 28.1 24.5 14.3 42 8.3 NE 26 37 14 20 1012.6 1012.6 0.0
30/03:00pm 28.4 25.2 15.3 45 8.0 NE 26 33 14 18 1012.8 1012.8 0.0
30/02:30pm 28.6 25.6 14.8 43 8.4 NE 24 39 13 21 1013.0 1013.0 0.0
30/02:00pm 29.7 27.9 15.4 42 8.8 NE 19 28 10 15 1013.5 1013.5 0.0
30/01:30pm 29.2 28.5 14.2 40 9.0 ENE 11 24 6 13 1014.1 1014.1 0.0
30/01:00pm 29.3 29.6 15.1 42 8.7 E 7 17 4 9 1014.7 1014.7 0.0
30/12:30pm 28.3 28.2 14.9 44 8.1 NE 9 13 5 7 1015.4 1015.4 0.0
30/12:00pm 27.7 28.0 15.0 45 7.7 E 7 15 4 8 1016.0 1016.0 0.0
30/11:30am 27.0 26.2 15.1 48 7.2 E 13 22 7 12 1016.6 1016.6 0.0
30/11:00am 26.2 27.1 16.2 54 6.1 N 6 15 3 8 1017.0 1017.0 0.0
30/10:30am 24.6 24.1 15.8 58 5.3 N 13 20 7 11 1017.4 1017.4 0.0
30/10:00am 23.8 24.3 15.6 60 4.9 N 7 13 4 7 1017.8 1017.8 0.0
30/09:30am 23.3 24.8 16.6 66 4.1 NNW 4 11 2 6 1018.2 1018.2 0.0
30/09:00am 21.5 23.5 16.0 71 3.3 CALM 0 7 0 4 1018.4 1018.4 0.0
30/08:30am 20.0 21.5 15.6 76 2.6 NE 2 7 1 4 1018.4 1018.4 0.0
30/08:00am 17.4 18.0 15.2 87 1.3 N 6 7 3 4 1018.4 1018.4 0.0
30/07:30am 16.0 16.2 15.8 99 0.1 N 9 11 5 6 1018.1 1018.1 0.0
30/07:00am 15.1 14.6 14.9 99 0.1 N 11 13 6 7 1017.9 1017.9 0.0
30/06:47am 14.7 14.8 14.5 99 0.1 N 7 9 4 5 1017.9 1017.9 0.0
30/06:30am 13.6 13.5 13.4 99 0.1 N 6 7 3 4 1017.7 1017.7 0.0
30/06:00am 13.7 13.1 13.5 99 0.1 N 9 11 5 6 1017.1 1017.1 0.0
30/05:55am 14.1 13.6 13.9 99 0.1 N 9 11 5 6 1017.1 1017.1 0.0
30/05:32am 13.3 13.5 13.1 99 0.1 N 4 9 2 5 1017.0 1017.0 0.0
30/05:30am 13.7 14.4 13.5 99 0.1 N 2 9 1 5 1016.9 1016.9 0.0
30/05:23am 13.6 14.7 13.4 99 0.1 CALM 0 0 0 0 1016.9 1016.9 0.0
30/05:00am 13.5 14.5 13.3 99 0.1 CALM 0 0 0 0 1016.8 1016.8 0.0
30/04:55am 13.2 14.1 13.0 99 0.1 CALM 0 0 0 0 1016.8 1016.8 0.0
30/04:39am 13.9 15.1 13.7 99 0.1 CALM 0 0 0 0 1016.9 1016.9 0.0
30/04:35am 13.5 14.5 13.3 99 0.1 CALM 0 0 0 0 1016.9 1016.9 0.0
30/04:31am 13.1 14.0 12.9 99 0.1 CALM 0 0 0 0 1016.9 1016.9 0.0
30/04:30am 13.1 14.0 12.9 99 0.1 CALM 0 0 0 0 1016.9 1016.9 0.0
30/04:06am 12.5 13.2 12.3 99 0.1 CALM 0 0 0 0 1016.8 1016.8 0.0
30/04:05am 12.6 13.4 12.4 99 0.1 CALM 0 0 0 0 1016.8 1016.8 0.0
30/04:03am 12.7 13.5 12.5 99 0.1 CALM 0 0 0 0 1016.9 1016.9 0.0
30/04:00am 13.0 13.9 12.8 99 0.1 CALM 0 0 0 0 1016.9 1016.9 0.0
30/03:53am 12.9 13.7 12.7 99 0.1 CALM 0 0 0 0 1016.9 1016.9 0.0
30/03:39am 13.0 13.9 12.8 99 0.1 CALM 0 0 0 0 1016.9 1016.9 0.0
30/03:30am 12.8 13.5 12.3 97 0.3 CALM 0 0 0 0 1016.9 1016.9 0.0
30/03:00am 13.8 14.9 13.5 98 0.2 CALM 0 0 0 0 1017.0 1017.0 0.0
30/02:45am 14.2 15.5 14.0 99 0.1 CALM 0 0 0 0 1017.0 1017.0 0.0
30/02:30am 13.6 14.5 12.8 95 0.4 CALM 0 0 0 0 1017.1 1017.1 0.0
30/02:05am 14.2 15.3 13.4 95 0.4 CALM 0 0 0 0 1017.1 1017.1 0.0
30/02:00am 14.1 15.1 13.1 94 0.5 CALM 0 0 0 0 1017.2 1017.2 0.0
30/01:47am 14.5 15.7 13.9 96 0.3 CALM 0 0 0 0 1017.3 1017.3 0.0
30/01:30am 14.5 15.5 13.2 92 0.7 CALM 0 0 0 0 1017.5 1017.5 0.0
30/01:00am 15.3 16.5 13.7 90 0.9 CALM 0 0 0 0 1017.8 1017.8 0.0
30/12:30am 16.1 17.7 15.0 93 0.6 CALM 0 0 0 0 1018.0 1018.0 0.0
30/12:00am 15.9 17.2 14.1 89 1.0 CALM 0 0 0 0 1018.1 1018.1 0.0
 
Date/Time
EDT
Temp
°C
App
Temp
°C
Dew
Point
Rel
Hum
%
Delta-T
°C
Wind Press
QNH
hPa
Press
MSL
hPa
Rain
since 9 am
mm
Dir
 
Spd
km/h
Gust
km/h
Spd
kts
Gust
kts
29/11:30pm 16.1 17.1 14.3 89 1.0 S 2 6 1 3 1018.2 1018.2 0.0
29/11:00pm 16.4 17.9 14.6 89 1.0 CALM 0 0 0 0 1018.1 1018.1 0.0
29/10:30pm 15.9 16.9 13.2 84 1.5 CALM 0 0 0 0 1018.0 1018.0 0.0
29/10:00pm 16.6 17.9 14.2 86 1.4 CALM 0 6 0 3 1018.1 1018.1 0.0
29/09:30pm 17.2 18.6 14.3 83 1.7 CALM 0 0 0 0 1018.0 1018.0 0.0
29/09:00pm 18.4 18.7 14.5 78 2.2 S 6 7 3 4 1017.7 1017.7 0.0
29/08:30pm 20.3 20.7 15.3 73 3.0 ESE 7 9 4 5 1017.3 1017.3 0.0
29/08:00pm 20.9 20.8 15.0 69 3.5 E 9 13 5 7 1017.0 1017.0 0.0
29/07:30pm 21.2 21.0 14.8 67 3.8 ESE 9 13 5 7 1016.5 1016.5 0.0
29/07:00pm 22.1 20.5 15.0 64 4.2 ESE 17 22 9 12 1016.1 1016.1 0.0
29/06:30pm 22.9 21.5 14.5 59 5.0 SE 15 24 8 13 1015.7 1015.7 0.0
29/06:00pm 23.8 21.4 13.9 54 5.8 ESE 19 28 10 15 1015.3 1015.3 0.0
29/05:30pm 24.4 21.8 13.3 50 6.5 ESE 19 28 10 15 1015.0 1015.0 0.0
29/05:00pm 24.8 22.3 13.4 49 6.7 ESE 19 32 10 17 1014.6 1014.6 0.0
29/04:30pm 25.5 22.6 14.0 49 6.8 SE 22 32 12 17 1014.6 1014.6 0.0
29/04:00pm 26.3 23.9 14.4 48 7.1 SSE 20 24 11 13 1014.6 1014.6 0.0
29/03:30pm 26.1 22.9 14.2 48 7.1 ESE 24 37 13 20 1014.7 1014.7 0.0
29/03:00pm 26.8 23.7 12.1 40 8.5 SE 20 28 11 15 1015.1 1015.1 0.0
29/02:30pm 27.0 23.9 13.4 43 8.0 ESE 22 32 12 17 1015.3 1015.3 0.0
29/02:00pm 27.2 24.4 13.2 42 8.2 SE 20 28 11 15 1015.5 1015.5 0.0
29/01:30pm 27.2 23.6 11.7 38 8.9 ESE 22 30 12 16 1015.5 1015.5 0.0
29/01:00pm 27.5 23.0 11.5 37 9.2 SSE 26 35 14 19 1015.7 1015.7 0.0
29/12:30pm 27.2 23.3 12.0 38 8.8 SE 24 33 13 18 1015.7 1015.7 0.0
29/12:00pm 26.4 22.9 13.5 45 7.6 S 24 35 13 19 1016.0 1016.0 0.0
29/11:30am 26.7 24.0 14.5 47 7.3 SSE 22 32 12 17 1016.2 1016.2 0.0
29/11:00am 26.1 25.7 17.2 58 5.5 SSE 15 24 8 13 1016.3 1016.3 0.0
29/10:30am 24.9 25.0 16.6 60 5.1 S 11 15 6 8 1016.5 1016.5 0.0

Other Formats:

Comma delimited format used in spreadsheet applications
http://www.bom.gov.au/fwo/IDN60801/IDN60801.94572.axf

JavaScript Object Notation format (JSON) in row-major order
http://www.bom.gov.au/fwo/IDN60801/IDN60801.94572.json